Time;durP1;ratioP1;P1;durP2;ratioP2;P2;SDS_P1;SDS_P2;PMS_P1;PMS_P2;Temp;Humidity;BMP_temperature;BMP_pressure;BME280_temperature;BME280_humidity;BME280_pressure;Samples;Min_cycle;Max_cycle;Signal;HPM_P1;HPM_P2
2024/01/20 00:00:16;;;;;;;;;;;;;;;-0.11;62.80;100303.47;4464488;32;33830;-88
2024/01/20 00:02:52;;;;;;;;;;;;;;;-0.06;62.54;100295.19;4453717;32;35023;-88
2024/01/20 00:05:21;;;;;;;;;;;;;;;-0.09;62.78;100306.97;4466623;32;35152;-88
2024/01/20 00:07:54;;;;;;;;;;;;;;;-0.18;63.09;100304.91;4463059;32;33387;-89
2024/01/20 00:10:22;;;;;;;;;;;;;;;-0.24;63.24;100310.66;4456471;32;32998;-88
2024/01/20 00:12:54;;;;;;;;;;;;;;;-0.18;62.90;100325.31;4450803;32;33815;-89
2024/01/20 00:15:22;;;;;;;;;;;;;;;-0.31;63.05;100321.41;4450950;32;33555;-89
2024/01/20 00:17:52;;;;;;;;;;;;;;;-0.30;63.35;100324.81;4455260;32;34479;-88
2024/01/20 00:20:22;;;;;;;;;;;;;;;-0.36;63.34;100322.91;4455538;32;33430;-88
2024/01/20 00:22:52;;;;;;;;;;;;;;;-0.30;63.24;100330.78;4451067;32;33814;-89
2024/01/20 00:25:26;;;;;;;;;;;;;;;-0.36;63.48;100322.00;4450542;32;33892;-89
2024/01/20 00:27:58;;;;;;;;;;;;;;;-0.51;63.76;100332.44;4461235;32;34500;-89
2024/01/20 00:30:27;;;;;;;;;;;;;;;-0.57;64.04;100335.63;4455461;32;33536;-89
2024/01/20 00:33:01;;;;;;;;;;;;;;;-0.25;63.13;100329.28;4451175;32;33911;-90
2024/01/20 00:35:30;;;;;;;;;;;;;;;0.02;62.39;100332.88;4456304;32;34053;-89
2024/01/20 00:38:01;;;;;;;;;;;;;;;-0.26;62.97;100329.25;4453662;32;33881;-89
2024/01/20 00:40:29;;;;;;;;;;;;;;;-0.45;63.87;100328.47;4453379;32;33338;-89
2024/01/20 00:42:59;;;;;;;;;;;;;;;-0.38;63.68;100331.28;4466821;32;34184;-89
2024/01/20 00:45:31;;;;;;;;;;;;;;;-0.53;64.44;100340.03;4447493;32;34159;-90
2024/01/20 00:48:02;;;;;;;;;;;;;;;-0.69;65.11;100338.50;4455304;32;33878;-89
2024/01/20 00:50:32;;;;;;;;;;;;;;;-0.60;64.85;100338.03;4446995;32;31422;-89
2024/01/20 00:53:07;;;;;;;;;;;;;;;-0.46;64.59;100338.59;4452273;32;33873;-90
2024/01/20 00:55:36;;;;;;;;;;;;;;;-0.49;64.44;100351.22;4448728;32;34120;-89
2024/01/20 00:58:09;;;;;;;;;;;;;;;-0.32;64.10;100357.88;4456722;32;34663;-90
2024/01/20 01:00:38;;;;;;;;;;;;;;;-0.24;63.74;100366.75;4458210;32;33008;-90
2024/01/20 01:03:09;;;;;;;;;;;;;;;-0.47;64.33;100370.88;4447867;32;33644;-90
2024/01/20 01:05:37;;;;;;;;;;;;;;;-0.57;64.79;100368.75;4452533;32;34960;-89
2024/01/20 01:08:06;;;;;;;;;;;;;;;-0.58;64.77;100363.56;4456778;32;33880;-90
2024/01/20 01:10:36;;;;;;;;;;;;;;;-0.68;64.98;100375.94;4456089;32;32432;-89
2024/01/20 01:13:05;;;;;;;;;;;;;;;-0.64;65.08;100371.84;4453664;32;34398;-90
2024/01/20 01:15:36;;;;;;;;;;;;;;;-0.68;65.27;100370.84;4462371;32;34450;-90
2024/01/20 01:18:05;;;;;;;;;;;;;;;-0.97;66.14;100369.56;4447781;32;33481;-90
2024/01/20 01:20:39;;;;;;;;;;;;;;;-0.89;66.02;100373.34;4450968;32;32793;-90
2024/01/20 01:23:13;;;;;;;;;;;;;;;-0.96;66.20;100380.66;4460669;32;35045;-90
2024/01/20 01:25:42;;;;;;;;;;;;;;;-0.80;65.94;100384.72;4447297;32;34657;-91
2024/01/20 01:28:13;;;;;;;;;;;;;;;-0.82;65.88;100393.97;4461441;32;34259;-90
2024/01/20 01:30:43;;;;;;;;;;;;;;;-0.82;66.16;100391.41;4452454;32;35147;-90
2024/01/20 01:33:15;;;;;;;;;;;;;;;-0.98;66.37;100385.66;4458055;32;33281;-91
2024/01/20 01:35:44;;;;;;;;;;;;;;;-0.90;65.98;100386.84;4463030;32;33774;-90
2024/01/20 01:38:13;;;;;;;;;;;;;;;-0.74;65.77;100392.63;4460084;32;34077;-90
2024/01/20 01:40:45;;;;;;;;;;;;;;;-0.65;65.45;100390.50;4460604;32;32307;-91
2024/01/20 01:43:15;;;;;;;;;;;;;;;-0.69;65.42;100392.03;4459604;32;34515;-91
2024/01/20 01:45:48;;;;;;;;;;;;;;;-0.61;65.28;100399.13;4456932;32;33840;-90
2024/01/20 01:48:23;;;;;;;;;;;;;;;-0.78;65.40;100393.31;4446986;32;34050;-90
2024/01/20 01:50:53;;;;;;;;;;;;;;;-0.93;65.94;100399.47;4450959;32;33622;-90
2024/01/20 01:53:21;;;;;;;;;;;;;;;-0.94;66.00;100387.53;4448920;32;34037;-90
2024/01/20 01:55:50;;;;;;;;;;;;;;;-1.02;66.40;100390.53;4452516;32;34982;-90
2024/01/20 01:58:19;;;;;;;;;;;;;;;-1.04;66.28;100385.38;4464919;32;33800;-92
2024/01/20 02:00:52;;;;;;;;;;;;;;;-0.98;66.77;100395.84;4457356;32;32934;-91
2024/01/20 02:03:22;;;;;;;;;;;;;;;-0.79;65.76;100400.09;4452072;32;34191;-90
2024/01/20 02:05:52;;;;;;;;;;;;;;;-0.70;65.16;100405.59;4447086;32;33132;-90
2024/01/20 02:08:28;;;;;;;;;;;;;;;-1.08;66.24;100417.47;4450346;32;34087;-91
2024/01/20 02:10:57;;;;;;;;;;;;;;;-0.98;66.05;100413.66;4446712;32;33373;-90
2024/01/20 02:13:29;;;;;;;;;;;;;;;-0.92;65.54;100413.06;4451895;32;34260;-91
2024/01/20 02:15:59;;;;;;;;;;;;;;;-0.66;64.88;100420.19;4448951;32;34938;-90
2024/01/20 02:18:29;;;;;;;;;;;;;;;-0.51;64.11;100421.66;4447904;32;33906;-91
2024/01/20 02:20:59;;;;;;;;;;;;;;;-0.65;64.80;100421.06;4446729;32;33455;-91
2024/01/20 02:23:32;;;;;;;;;;;;;;;-0.47;64.15;100426.94;4456667;32;34914;-91
2024/01/20 02:26:01;;;;;;;;;;;;;;;-0.48;63.80;100419.25;4461526;32;34789;-91
2024/01/20 02:28:33;;;;;;;;;;;;;;;-0.47;63.58;100416.75;4449416;32;34034;-91
2024/01/20 02:31:02;;;;;;;;;;;;;;;-0.44;63.71;100429.63;4439986;32;32888;-91
2024/01/20 02:33:30;;;;;;;;;;;;;;;-0.75;64.76;100424.00;4446874;32;33891;-90
2024/01/20 02:36:02;;;;;;;;;;;;;;;-0.58;63.80;100422.19;4451907;32;33927;-91
2024/01/20 02:38:32;;;;;;;;;;;;;;;-0.51;63.37;100427.63;4448102;32;33624;-91
2024/01/20 02:41:04;;;;;;;;;;;;;;;-0.59;63.55;100436.63;4439210;32;31449;-90
2024/01/20 02:43:33;;;;;;;;;;;;;;;-0.72;64.21;100424.16;4446745;32;33831;-92
2024/01/20 02:46:03;;;;;;;;;;;;;;;-0.59;63.96;100436.63;4447993;32;34221;-90
2024/01/20 02:48:33;;;;;;;;;;;;;;;-0.72;64.47;100430.13;4460758;32;34316;-90
2024/01/20 02:51:03;;;;;;;;;;;;;;;-0.55;63.81;100442.72;4449645;32;32667;-90
2024/01/20 02:53:35;;;;;;;;;;;;;;;-0.58;64.16;100442.56;4449406;32;34249;-91
2024/01/20 02:56:05;;;;;;;;;;;;;;;-0.65;64.31;100431.25;4451994;32;33378;-89
2024/01/20 03:01:17;;;;;;;;;;;;;;;-0.60;64.26;100431.44;4451121;32;33965;-90
2024/01/20 03:03:48;;;;;;;;;;;;;;;-0.58;63.98;100445.12;4450018;32;33416;-89
2024/01/20 03:06:17;;;;;;;;;;;;;;;-0.71;64.46;100444.59;4451587;32;34004;-89
2024/01/20 03:08:49;;;;;;;;;;;;;;;-0.71;64.49;100441.19;4458339;32;34723;-89
2024/01/20 03:11:18;;;;;;;;;;;;;;;-0.82;64.65;100444.91;4457595;32;32567;-88
2024/01/20 03:13:56;;;;;;;;;;;;;;;-1.02;65.73;100449.97;4459073;32;34562;-88
2024/01/20 03:16:28;;;;;;;;;;;;;;;-0.97;65.78;100453.59;4446904;32;34967;-89
2024/01/20 03:18:57;;;;;;;;;;;;;;;-0.91;65.49;100453.03;4446334;32;33695;-89
2024/01/20 03:21:26;;;;;;;;;;;;;;;-0.79;64.80;100468.00;4447739;32;33023;-89
2024/01/20 03:23:57;;;;;;;;;;;;;;;-0.67;64.42;100473.63;4457760;32;33928;-91
2024/01/20 03:26:25;;;;;;;;;;;;;;;-0.73;64.39;100486.09;4460066;32;33801;-90
2024/01/20 03:28:56;;;;;;;;;;;;;;;-0.50;63.77;100477.78;4458847;32;34159;-89
2024/01/20 03:31:26;;;;;;;;;;;;;;;-0.58;64.09;100486.78;4458357;32;32596;-91
2024/01/20 03:33:54;;;;;;;;;;;;;;;-0.62;64.09;100482.34;4451079;32;33828;-90
2024/01/20 03:36:24;;;;;;;;;;;;;;;-0.36;62.92;100482.59;4449735;32;33747;-90
2024/01/20 03:38:55;;;;;;;;;;;;;;;-0.31;62.57;100487.13;4466980;32;34439;-89
2024/01/20 03:41:26;;;;;;;;;;;;;;;-0.34;62.47;100486.09;4446972;32;33647;-89
2024/01/20 03:44:03;;;;;;;;;;;;;;;-0.37;62.89;100491.94;4446103;32;34006;-88
2024/01/20 03:46:32;;;;;;;;;;;;;;;-0.49;62.79;100492.28;4451339;32;34728;-88
2024/01/20 03:49:04;;;;;;;;;;;;;;;-0.63;63.48;100498.44;4454296;32;34047;-88
2024/01/20 03:51:34;;;;;;;;;;;;;;;-0.47;63.33;100505.09;4458856;32;33191;-88
2024/01/20 03:54:04;;;;;;;;;;;;;;;-0.43;62.91;100499.34;4461971;32;34171;-87
2024/01/20 03:56:43;;;;;;;;;;;;;;;-0.27;62.31;100498.31;4464730;32;33635;-88
2024/01/20 03:59:12;;;;;;;;;;;;;;;-0.37;62.12;100491.94;4466411;32;34881;-87
2024/01/20 04:01:46;;;;;;;;;;;;;;;-0.54;62.81;100501.41;4461617;32;33411;-87
2024/01/20 04:04:16;;;;;;;;;;;;;;;-0.58;63.24;100504.63;4462086;32;34446;-85
2024/01/20 04:06:53;;;;;;;;;;;;;;;-0.57;62.76;100498.72;4462081;32;35063;-86
2024/01/20 04:09:24;;;;;;;;;;;;;;;-0.60;63.14;100506.25;4464760;32;33999;-86
2024/01/20 04:11:54;;;;;;;;;;;;;;;-0.82;63.80;100499.31;4482564;32;32979;-86
2024/01/20 04:14:25;;;;;;;;;;;;;;;-0.48;62.57;100496.59;4480214;32;34057;-87
2024/01/20 04:16:53;;;;;;;;;;;;;;;-0.52;62.99;100496.38;4480654;32;33281;-87
2024/01/20 04:19:27;;;;;;;;;;;;;;;-0.47;62.66;100497.44;4481799;32;33615;-87
2024/01/20 04:21:56;;;;;;;;;;;;;;;-0.61;63.17;100496.81;4484438;32;33339;-86
2024/01/20 04:24:27;;;;;;;;;;;;;;;-0.78;63.81;100485.00;4479664;32;33289;-88
2024/01/20 04:26:57;;;;;;;;;;;;;;;-0.76;63.90;100489.38;4465370;32;33152;-88
2024/01/20 04:29:29;;;;;;;;;;;;;;;-0.58;63.55;100481.69;4464783;32;34298;-88
2024/01/20 04:31:58;;;;;;;;;;;;;;;-0.78;63.89;100479.91;4450189;32;33233;-85
2024/01/20 04:34:27;;;;;;;;;;;;;;;-0.70;63.89;100486.22;4469018;32;34057;-86
2024/01/20 04:36:56;;;;;;;;;;;;;;;-0.88;64.36;100483.72;4463629;32;33771;-87
2024/01/20 04:39:26;;;;;;;;;;;;;;;-0.74;63.92;100500.50;4465061;32;34985;-85
2024/01/20 04:42:01;;;;;;;;;;;;;;;-0.59;63.66;100505.41;4464128;32;33583;-86
2024/01/20 04:44:29;;;;;;;;;;;;;;;-0.65;63.18;100513.66;4468545;32;34333;-87
2024/01/20 04:47:02;;;;;;;;;;;;;;;-0.59;63.04;100519.84;4449810;32;33483;-88
2024/01/20 04:49:36;;;;;;;;;;;;;;;-0.62;63.44;100527.38;4464348;32;33839;-85
2024/01/20 04:52:06;;;;;;;;;;;;;;;-0.45;63.31;100545.13;4463438;32;33212;-86
2024/01/20 04:54:35;;;;;;;;;;;;;;;-0.65;63.91;100543.38;4464569;32;33774;-86
2024/01/20 04:57:08;;;;;;;;;;;;;;;-0.29;63.15;100544.16;4468762;32;34098;-87
2024/01/20 04:59:38;;;;;;;;;;;;;;;-0.08;62.66;100539.09;4459737;32;33657;-86
2024/01/20 05:02:07;;;;;;;;;;;;;;;-0.02;62.08;100551.28;4450280;32;32715;-85
2024/01/20 05:04:36;;;;;;;;;;;;;;;-0.13;62.12;100545.69;4447603;32;33914;-87
2024/01/20 05:07:05;;;;;;;;;;;;;;;-0.17;62.59;100553.13;4451805;32;33786;-87
2024/01/20 05:09:39;;;;;;;;;;;;;;;-0.33;62.98;100570.31;4451601;32;34093;-87
2024/01/20 05:12:09;;;;;;;;;;;;;;;-0.48;63.68;100570.50;4447419;32;32696;-85
2024/01/20 05:14:37;;;;;;;;;;;;;;;-0.43;63.60;100569.03;4448256;32;33815;-86
2024/01/20 05:17:07;;;;;;;;;;;;;;;-0.28;63.34;100570.53;4450469;32;33565;-87
2024/01/20 05:19:38;;;;;;;;;;;;;;;-0.24;63.27;100572.41;4452575;32;33547;-84
2024/01/20 05:22:11;;;;;;;;;;;;;;;-0.36;63.52;100574.38;4448415;32;32832;-87
2024/01/20 05:24:40;;;;;;;;;;;;;;;-0.50;63.91;100577.19;4447926;32;33949;-88
2024/01/20 05:27:12;;;;;;;;;;;;;;;-0.25;63.42;100581.72;4448590;32;34481;-88
2024/01/20 05:29:42;;;;;;;;;;;;;;;-0.14;63.19;100584.75;4452976;32;34106;-87
2024/01/20 05:32:19;;;;;;;;;;;;;;;-0.13;62.88;100583.94;4452966;32;33452;-85
2024/01/20 05:34:53;;;;;;;;;;;;;;;-0.05;62.76;100595.38;4447964;32;35032;-84
2024/01/20 05:37:22;;;;;;;;;;;;;;;-0.27;63.06;100595.19;4448301;32;33912;-85
2024/01/20 05:39:58;;;;;;;;;;;;;;;-0.17;63.00;100599.03;4448328;32;34080;-87
2024/01/20 05:42:28;;;;;;;;;;;;;;;-0.12;62.88;100603.56;4452968;32;32860;-85
2024/01/20 05:44:58;;;;;;;;;;;;;;;-0.21;62.88;100598.03;4448160;32;34782;-85
2024/01/20 05:47:28;;;;;;;;;;;;;;;-0.15;63.01;100605.09;4449066;32;34010;-84
2024/01/20 05:49:57;;;;;;;;;;;;;;;-0.04;62.71;100606.44;4448206;32;33307;-87
2024/01/20 05:52:31;;;;;;;;;;;;;;;0.04;62.40;100611.88;4431152;32;33338;-84
2024/01/20 05:55:01;;;;;;;;;;;;;;;-0.09;62.87;100615.56;4447823;32;32507;-86
2024/01/20 05:57:37;;;;;;;;;;;;;;;-0.11;62.94;100624.81;4447946;32;34610;-86
2024/01/20 06:00:06;;;;;;;;;;;;;;;-0.28;63.68;100634.25;4444417;32;34446;-85
2024/01/20 06:02:36;;;;;;;;;;;;;;;-0.05;62.67;100635.28;4446277;32;33087;-84
2024/01/20 06:05:05;;;;;;;;;;;;;;;-0.08;63.09;100638.56;4437091;32;33447;-84
2024/01/20 06:07:37;;;;;;;;;;;;;;;0.22;62.04;100640.75;4437129;32;35102;-84
2024/01/20 06:10:06;;;;;;;;;;;;;;;0.13;61.73;100643.75;4435093;32;34871;-86
2024/01/20 06:12:41;;;;;;;;;;;;;;;0.21;61.43;100652.62;4432742;32;32669;-85
2024/01/20 06:15:12;;;;;;;;;;;;;;;-0.20;62.88;100655.88;4432401;32;34021;-85
2024/01/20 06:17:41;;;;;;;;;;;;;;;-0.18;62.97;100659.38;4437259;32;34095;-84
2024/01/20 06:20:10;;;;;;;;;;;;;;;0.06;61.98;100662.16;4433782;32;34014;-85
2024/01/20 06:22:45;;;;;;;;;;;;;;;0.05;62.24;100662.06;4432225;32;33903;-84
2024/01/20 06:25:14;;;;;;;;;;;;;;;0.12;62.04;100665.00;4432474;32;34595;-83
2024/01/20 06:27:43;;;;;;;;;;;;;;;0.07;62.53;100668.13;4432758;32;34658;-83
2024/01/20 06:30:14;;;;;;;;;;;;;;;0.11;61.77;100677.66;4441544;32;34998;-83
2024/01/20 06:32:45;;;;;;;;;;;;;;;0.30;61.37;100680.22;4439121;32;33452;-84
2024/01/20 06:35:14;;;;;;;;;;;;;;;-0.31;63.62;100673.25;4432606;32;33777;-83
2024/01/20 06:37:43;;;;;;;;;;;;;;;0.04;62.33;100675.66;4444815;32;32686;-85
2024/01/20 06:40:12;;;;;;;;;;;;;;;0.04;62.20;100680.75;4452428;32;34415;-84
2024/01/20 06:42:50;;;;;;;;;;;;;;;0.24;61.22;100679.94;4447451;32;32660;-83
2024/01/20 06:45:21;;;;;;;;;;;;;;;0.34;60.88;100686.31;4447381;32;34267;-83
2024/01/20 06:47:57;;;;;;;;;;;;;;;0.40;60.44;100701.94;4449894;32;33866;-82
2024/01/20 06:50:32;;;;;;;;;;;;;;;0.03;61.56;100699.44;4447869;32;34249;-85
2024/01/20 06:53:01;;;;;;;;;;;;;;;0.13;61.50;100710.09;4467787;32;32705;-86
2024/01/20 06:55:34;;;;;;;;;;;;;;;0.16;61.18;100717.88;4462540;32;34367;-83
2024/01/20 06:58:03;;;;;;;;;;;;;;;0.33;60.54;100721.19;4464270;32;33871;-86
2024/01/20 07:00:36;;;;;;;;;;;;;;;0.21;60.96;100723.19;4463899;32;34579;-83
2024/01/20 07:03:06;;;;;;;;;;;;;;;0.44;59.88;100734.44;4462861;32;34086;-83
2024/01/20 07:05:43;;;;;;;;;;;;;;;0.30;60.91;100733.81;4467505;32;34812;-82
2024/01/20 07:08:12;;;;;;;;;;;;;;;0.39;60.61;100741.03;4463900;32;33847;-86
2024/01/20 07:10:44;;;;;;;;;;;;;;;0.50;60.42;100750.03;4462852;32;34150;-85
2024/01/20 07:13:13;;;;;;;;;;;;;;;0.42;60.40;100742.03;4448510;32;32222;-83
2024/01/20 07:15:50;;;;;;;;;;;;;;;0.63;59.93;100754.00;4467843;32;34890;-84
2024/01/20 07:18:22;;;;;;;;;;;;;;;0.71;59.02;100762.00;4467360;32;34283;-82
2024/01/20 07:20:52;;;;;;;;;;;;;;;0.54;59.97;100763.81;4460908;32;34731;-85
2024/01/20 07:23:23;;;;;;;;;;;;;;;0.84;58.65;100766.81;4456711;32;33005;-82
2024/01/20 07:25:52;;;;;;;;;;;;;;;0.87;58.46;100766.97;4455238;32;34487;-84
2024/01/20 07:28:21;;;;;;;;;;;;;;;0.80;58.86;100773.50;4459471;32;33644;-82
2024/01/20 07:30:51;;;;;;;;;;;;;;;0.82;59.03;100771.88;4435926;32;32576;-84
2024/01/20 07:33:20;;;;;;;;;;;;;;;0.96;57.91;100777.56;4458670;32;33429;-82
2024/01/20 07:35:50;;;;;;;;;;;;;;;0.67;58.93;100776.31;4454038;32;33252;-82
2024/01/20 07:38:25;;;;;;;;;;;;;;;0.53;59.37;100783.38;4437383;32;33720;-84
2024/01/20 07:40:54;;;;;;;;;;;;;;;0.53;59.67;100785.03;4451914;32;33901;-82
2024/01/20 07:43:23;;;;;;;;;;;;;;;0.39;60.15;100784.44;4447370;32;32900;-84
2024/01/20 07:45:56;;;;;;;;;;;;;;;0.02;61.23;100776.75;4432194;32;32453;-84
2024/01/20 07:48:28;;;;;;;;;;;;;;;-0.18;62.08;100783.47;4453904;32;33915;-83
2024/01/20 07:50:57;;;;;;;;;;;;;;;-0.30;62.80;100789.72;4459022;32;33550;-82
2024/01/20 07:53:27;;;;;;;;;;;;;;;-0.27;62.61;100794.09;4442098;32;32009;-83
2024/01/20 07:55:58;;;;;;;;;;;;;;;-0.30;63.24;100797.38;4454764;32;35016;-81
2024/01/20 07:58:28;;;;;;;;;;;;;;;-0.43;63.70;100795.03;4455348;32;33901;-84
2024/01/20 08:00:58;;;;;;;;;;;;;;;-0.26;63.55;100808.59;4462017;32;34480;-82
2024/01/20 08:03:33;;;;;;;;;;;;;;;-0.35;64.22;100808.16;4462916;32;33275;-83
2024/01/20 08:06:02;;;;;;;;;;;;;;;-0.29;64.12;100806.78;4456824;32;34558;-83
2024/01/20 08:08:36;;;;;;;;;;;;;;;-0.12;63.77;100806.69;4454368;32;33705;-84
2024/01/20 08:11:04;;;;;;;;;;;;;;;-0.11;63.69;100806.78;4457606;32;33751;-82
2024/01/20 08:13:35;;;;;;;;;;;;;;;-0.39;64.76;100811.34;4462043;32;33168;-82
2024/01/20 08:16:05;;;;;;;;;;;;;;;-0.09;63.83;100806.87;4455832;32;34285;-85
2024/01/20 08:18:35;;;;;;;;;;;;;;;-0.07;63.52;100821.44;4456596;32;33583;-82
2024/01/20 08:21:05;;;;;;;;;;;;;;;-0.17;63.83;100820.91;4455617;32;34052;-85
2024/01/20 08:23:35;;;;;;;;;;;;;;;-0.01;63.62;100826.81;4456745;32;34018;-83
2024/01/20 08:26:05;;;;;;;;;;;;;;;0.16;63.02;100814.84;4460154;32;33769;-83
2024/01/20 08:28:41;;;;;;;;;;;;;;;0.29;62.71;100823.06;4457686;32;33541;-84
2024/01/20 08:31:11;;;;;;;;;;;;;;;0.28;62.63;100829.87;4456428;32;33826;-85
2024/01/20 08:33:42;;;;;;;;;;;;;;;0.34;62.31;100821.59;4454383;32;32973;-83
2024/01/20 08:36:11;;;;;;;;;;;;;;;0.39;62.14;100825.28;4459930;32;34990;-85
2024/01/20 08:38:44;;;;;;;;;;;;;;;0.50;62.00;100835.97;4458628;32;35681;-83
2024/01/20 08:41:13;;;;;;;;;;;;;;;0.47;62.46;100835.84;4457770;32;33547;-82
2024/01/20 08:43:44;;;;;;;;;;;;;;;0.45;62.28;100834.88;4454478;32;33368;-82
2024/01/20 08:46:17;;;;;;;;;;;;;;;0.63;61.81;100841.72;4454700;32;33382;-82
2024/01/20 08:48:48;;;;;;;;;;;;;;;0.85;61.01;100840.97;4459761;32;34376;-82
2024/01/20 08:51:17;;;;;;;;;;;;;;;0.71;61.42;100851.41;4452821;32;32325;-83
2024/01/20 08:53:47;;;;;;;;;;;;;;;0.69;61.62;100853.00;4437643;32;33618;-84
2024/01/20 08:56:16;;;;;;;;;;;;;;;0.96;61.10;100858.47;4439261;32;33604;-82
2024/01/20 08:58:48;;;;;;;;;;;;;;;1.07;60.68;100857.25;4441965;32;34275;-83
2024/01/20 09:01:19;;;;;;;;;;;;;;;1.08;60.37;100859.00;4441982;32;34144;-83
2024/01/20 09:03:47;;;;;;;;;;;;;;;1.17;60.15;100867.06;4448380;32;33430;-83
2024/01/20 09:06:17;;;;;;;;;;;;;;;1.19;59.93;100869.72;4438105;32;33416;-85
2024/01/20 09:08:47;;;;;;;;;;;;;;;1.16;60.48;100875.56;4435379;32;33373;-83
2024/01/20 09:11:16;;;;;;;;;;;;;;;1.41;59.45;100880.03;4437630;32;33623;-83
2024/01/20 09:13:54;;;;;;;;;;;;;;;1.50;58.77;100877.00;4433095;32;32757;-83
2024/01/20 09:16:23;;;;;;;;;;;;;;;1.32;59.92;100878.78;4433130;32;33603;-86
2024/01/20 09:18:55;;;;;;;;;;;;;;;1.52;58.96;100887.28;4435307;32;33382;-84
2024/01/20 09:21:24;;;;;;;;;;;;;;;1.56;59.37;100892.59;4432269;32;34774;-85
2024/01/20 09:23:55;;;;;;;;;;;;;;;1.55;59.41;100887.41;4437608;32;33618;-86
2024/01/20 09:26:25;;;;;;;;;;;;;;;1.47;59.68;100884.53;4432543;32;34169;-83
2024/01/20 09:28:53;;;;;;;;;;;;;;;1.70;58.79;100886.38;4434432;32;34982;-83
2024/01/20 09:31:24;;;;;;;;;;;;;;;1.53;59.74;100878.81;4433102;32;34130;-83
2024/01/20 09:33:59;;;;;;;;;;;;;;;1.67;59.09;100873.47;4447935;32;33439;-85
2024/01/20 09:36:28;;;;;;;;;;;;;;;1.91;58.21;100870.19;4432569;32;34406;-86
2024/01/20 09:39:00;;;;;;;;;;;;;;;1.59;59.20;100869.69;4432810;32;34079;-82
2024/01/20 09:41:29;;;;;;;;;;;;;;;1.55;59.00;100872.97;4432550;32;34080;-86
2024/01/20 09:44:02;;;;;;;;;;;;;;;1.54;59.07;100867.78;4432447;32;33337;-84
2024/01/20 09:46:32;;;;;;;;;;;;;;;1.39;59.41;100871.44;4436727;32;33944;-87
2024/01/20 09:49:01;;;;;;;;;;;;;;;1.26;59.42;100849.59;4433540;32;33683;-84
2024/01/20 09:51:31;;;;;;;;;;;;;;;1.40;59.44;100856.94;4441411;32;35081;-84
2024/01/20 09:54:00;;;;;;;;;;;;;;;1.51;59.11;100859.97;4453708;32;33739;-83
2024/01/20 09:56:30;;;;;;;;;;;;;;;1.40;59.70;100862.06;4452835;32;34794;-85
2024/01/20 09:59:02;;;;;;;;;;;;;;;1.51;59.92;100849.75;4449031;32;34385;-83
2024/01/20 10:01:35;;;;;;;;;;;;;;;1.68;59.42;100854.75;4458097;32;33652;-83
2024/01/20 10:04:04;;;;;;;;;;;;;;;1.60;59.65;100851.00;4455188;32;35011;-84
2024/01/20 10:06:33;;;;;;;;;;;;;;;1.82;59.09;100849.34;4449062;32;34264;-86
2024/01/20 10:09:09;;;;;;;;;;;;;;;1.98;58.61;100849.16;4439628;32;32470;-83
2024/01/20 10:11:38;;;;;;;;;;;;;;;1.86;58.81;100852.09;4465873;32;34079;-84
2024/01/20 10:14:11;;;;;;;;;;;;;;;1.89;58.49;100854.75;4463318;32;32736;-84
2024/01/20 10:16:41;;;;;;;;;;;;;;;1.95;58.60;100858.38;4463138;32;33402;-83
2024/01/20 10:19:09;;;;;;;;;;;;;;;2.12;57.57;100847.13;4467466;32;34162;-84
2024/01/20 10:21:39;;;;;;;;;;;;;;;2.14;57.09;100851.47;4468309;32;34063;-85
2024/01/20 10:24:09;;;;;;;;;;;;;;;2.14;56.98;100843.81;4463416;32;33170;-83
2024/01/20 10:26:42;;;;;;;;;;;;;;;2.21;57.03;100842.38;4463165;32;33814;-83
2024/01/20 10:29:14;;;;;;;;;;;;;;;2.34;56.40;100848.81;4462402;32;35109;-85
2024/01/20 10:31:44;;;;;;;;;;;;;;;2.41;55.79;100852.50;4466357;32;34821;-83
2024/01/20 10:34:24;;;;;;;;;;;;;;;2.02;56.54;100848.44;4457079;32;32669;-84
2024/01/20 10:36:54;;;;;;;;;;;;;;;2.13;57.28;100841.19;4447265;32;33954;-87
2024/01/20 10:39:24;;;;;;;;;;;;;;;2.26;57.17;100842.53;4446945;32;34356;-83
2024/01/20 10:41:54;;;;;;;;;;;;;;;2.50;56.52;100846.03;4457866;32;34047;-85
2024/01/20 10:44:26;;;;;;;;;;;;;;;2.51;56.34;100852.03;4458643;32;33788;-83
2024/01/20 10:46:58;;;;;;;;;;;;;;;2.74;55.44;100852.91;4451071;32;34123;-85
2024/01/20 10:49:27;;;;;;;;;;;;;;;2.59;56.02;100862.59;4452955;32;33421;-84
2024/01/20 10:51:56;;;;;;;;;;;;;;;2.78;55.87;100857.34;4446737;32;34891;-84
2024/01/20 10:54:29;;;;;;;;;;;;;;;2.47;55.91;100855.31;4455553;32;33865;-82
2024/01/20 10:56:59;;;;;;;;;;;;;;;2.46;55.90;100854.41;4439102;32;32609;-84
2024/01/20 10:59:31;;;;;;;;;;;;;;;2.60;56.04;100851.50;4449475;32;35459;-84
2024/01/20 11:02:08;;;;;;;;;;;;;;;2.82;54.89;100850.63;4461186;32;33457;-84
2024/01/20 11:04:39;;;;;;;;;;;;;;;2.44;56.22;100850.94;4458432;32;33901;-83
2024/01/20 11:07:20;;;;;;;;;;;;;;;2.70;55.38;100849.34;4450015;32;33426;-83
2024/01/20 11:09:56;;;;;;;;;;;;;;;2.68;55.49;100850.09;4449724;32;34817;-84
2024/01/20 11:12:26;;;;;;;;;;;;;;;2.51;55.74;100852.03;4445267;32;33953;-84
2024/01/20 11:14:55;;;;;;;;;;;;;;;2.72;55.80;100860.53;4445386;32;34136;-84
2024/01/20 11:17:28;;;;;;;;;;;;;;;2.84;55.12;100864.37;4445260;32;33807;-87
2024/01/20 11:20:06;;;;;;;;;;;;;;;2.79;55.91;100859.06;4449418;32;34653;-86
2024/01/20 11:22:45;;;;;;;;;;;;;;;3.16;54.18;100862.97;4448919;32;34577;-83
2024/01/20 11:25:14;;;;;;;;;;;;;;;2.78;55.28;100863.31;4445904;32;32721;-86
2024/01/20 11:27:46;;;;;;;;;;;;;;;2.62;55.86;100855.00;4445769;32;34460;-86
2024/01/20 11:30:25;;;;;;;;;;;;;;;2.84;54.94;100851.56;4449190;32;34375;-83
2024/01/20 11:33:00;;;;;;;;;;;;;;;2.71;55.36;100863.06;4451132;32;34374;-84
2024/01/20 11:35:31;;;;;;;;;;;;;;;2.74;54.91;100858.91;4448277;32;33208;-84
2024/01/20 11:38:03;;;;;;;;;;;;;;;2.80;54.32;100849.69;4448112;32;34797;-83
2024/01/20 11:40:32;;;;;;;;;;;;;;;2.74;55.05;100858.91;4450293;32;34185;-87
2024/01/20 11:43:07;;;;;;;;;;;;;;;2.73;55.41;100857.16;4446760;32;33486;-84
2024/01/20 11:45:35;;;;;;;;;;;;;;;2.92;54.73;100851.03;4451479;32;33246;-83
2024/01/20 11:48:09;;;;;;;;;;;;;;;3.07;54.64;100847.25;4447047;32;34602;-83
2024/01/20 11:50:47;;;;;;;;;;;;;;;3.16;54.68;100845.00;4450348;32;34280;-83
2024/01/20 11:53:16;;;;;;;;;;;;;;;3.20;53.91;100849.44;4447455;32;33690;-83
2024/01/20 11:55:52;;;;;;;;;;;;;;;3.13;54.06;100850.03;4462174;32;32831;-85
2024/01/20 11:58:21;;;;;;;;;;;;;;;3.15;54.64;100854.41;4466711;32;34098;-85
2024/01/20 12:00:52;;;;;;;;;;;;;;;2.95;55.25;100848.56;4461934;32;35299;-86
2024/01/20 12:03:22;;;;;;;;;;;;;;;3.10;55.25;100849.94;4460513;32;33865;-85
2024/01/20 12:06:05;;;;;;;;;;;;;;;2.99;54.98;100839.28;4456065;32;33059;-84
2024/01/20 12:08:42;;;;;;;;;;;;;;;2.95;55.84;100829.75;4449756;32;33915;-87
2024/01/20 12:11:17;;;;;;;;;;;;;;;2.90;55.77;100821.91;4451436;32;34286;-83
2024/01/20 12:13:46;;;;;;;;;;;;;;;3.02;55.06;100824.03;4446158;32;34540;-86
2024/01/20 12:16:14;;;;;;;;;;;;;;;3.04;55.66;100819.81;4446414;32;32585;-84
2024/01/20 12:18:44;;;;;;;;;;;;;;;2.89;55.66;100817.56;4446403;32;34058;-84
2024/01/20 12:21:19;;;;;;;;;;;;;;;2.87;55.01;100818.34;4437213;32;33324;-84
2024/01/20 12:23:48;;;;;;;;;;;;;;;2.93;54.50;100809.19;4451035;32;34736;-85
2024/01/20 12:26:18;;;;;;;;;;;;;;;2.79;54.42;100807.81;4447569;32;34076;-85
2024/01/20 12:28:50;;;;;;;;;;;;;;;2.73;55.04;100810.16;4447396;32;33689;-85
2024/01/20 12:31:21;;;;;;;;;;;;;;;3.01;54.81;100823.97;4461378;32;34860;-83
2024/01/20 12:33:50;;;;;;;;;;;;;;;3.02;54.60;100815.44;4464218;32;33742;-84
2024/01/20 12:36:24;;;;;;;;;;;;;;;3.02;54.54;100815.44;4454684;32;33820;-84
2024/01/20 12:38:53;;;;;;;;;;;;;;;3.14;54.47;100813.31;4448397;32;34575;-85
2024/01/20 12:41:22;;;;;;;;;;;;;;;3.26;54.16;100808.59;4450113;32;33800;-83
2024/01/20 12:43:51;;;;;;;;;;;;;;;3.19;54.19;100802.41;4433607;32;33534;-84
2024/01/20 12:46:23;;;;;;;;;;;;;;;3.02;54.02;100808.66;4451627;32;32445;-84
2024/01/20 12:48:52;;;;;;;;;;;;;;;3.03;53.88;100797.56;4446335;32;33673;-87
2024/01/20 12:51:28;;;;;;;;;;;;;;;2.93;53.98;100809.19;4448508;32;33589;-84
2024/01/20 12:53:57;;;;;;;;;;;;;;;2.75;53.98;100813.63;4452931;32;35486;-86
2024/01/20 12:56:28;;;;;;;;;;;;;;;2.64;54.33;100817.53;4468854;32;32492;-82
2024/01/20 12:58:57;;;;;;;;;;;;;;;2.74;53.67;100823.03;4463029;32;34972;-85
2024/01/20 13:01:28;;;;;;;;;;;;;;;2.68;54.11;100827.03;4464122;32;33849;-86